sensor_id;sensor_type;location;lat;lon;timestamp;P1;durP1;ratioP1;P2;durP2;ratioP2
52786;SDS011;38661;53.152;5.846;2023-12-22T00:01:25;27.45;;;5.50;;
52786;SDS011;38661;53.152;5.846;2023-12-22T00:03:50;18.40;;;3.60;;
52786;SDS011;38661;53.152;5.846;2023-12-22T00:06:16;8.85;;;2.50;;
52786;SDS011;38661;53.152;5.846;2023-12-22T00:08:42;11.57;;;2.67;;
52786;SDS011;38661;53.152;5.846;2023-12-22T00:11:08;10.13;;;2.90;;
52786;SDS011;38661;53.152;5.846;2023-12-22T00:13:33;8.23;;;1.92;;
52786;SDS011;38661;53.152;5.846;2023-12-22T00:15:59;14.63;;;3.33;;
52786;SDS011;38661;53.152;5.846;2023-12-22T00:18:26;14.23;;;2.78;;
52786;SDS011;38661;53.152;5.846;2023-12-22T00:20:52;22.27;;;6.22;;
52786;SDS011;38661;53.152;5.846;2023-12-22T00:23:18;19.80;;;4.38;;
52786;SDS011;38661;53.152;5.846;2023-12-22T00:25:43;14.23;;;3.50;;
52786;SDS011;38661;53.152;5.846;2023-12-22T00:28:09;25.67;;;5.18;;
52786;SDS011;38661;53.152;5.846;2023-12-22T00:30:35;13.75;;;4.03;;
52786;SDS011;38661;53.152;5.846;2023-12-22T00:33:01;16.00;;;3.83;;
52786;SDS011;38661;53.152;5.846;2023-12-22T00:35:27;16.77;;;4.82;;
52786;SDS011;38661;53.152;5.846;2023-12-22T00:37:53;13.88;;;3.72;;
52786;SDS011;38661;53.152;5.846;2023-12-22T00:40:19;23.13;;;4.80;;
52786;SDS011;38661;53.152;5.846;2023-12-22T00:42:44;29.63;;;5.35;;
52786;SDS011;38661;53.152;5.846;2023-12-22T00:45:10;22.75;;;4.78;;
52786;SDS011;38661;53.152;5.846;2023-12-22T00:47:36;20.85;;;5.32;;
52786;SDS011;38661;53.152;5.846;2023-12-22T00:50:02;22.10;;;4.30;;
52786;SDS011;38661;53.152;5.846;2023-12-22T00:52:29;15.38;;;3.83;;
52786;SDS011;38661;53.152;5.846;2023-12-22T00:54:56;18.98;;;3.90;;
52786;SDS011;38661;53.152;5.846;2023-12-22T00:57:22;17.63;;;4.05;;
52786;SDS011;38661;53.152;5.846;2023-12-22T00:59:47;26.92;;;5.05;;
52786;SDS011;38661;53.152;5.846;2023-12-22T01:02:14;18.70;;;4.50;;
52786;SDS011;38661;53.152;5.846;2023-12-22T01:04:40;15.35;;;3.70;;
52786;SDS011;38661;53.152;5.846;2023-12-22T01:07:09;20.13;;;3.88;;
52786;SDS011;38661;53.152;5.846;2023-12-22T01:09:35;23.13;;;4.80;;
52786;SDS011;38661;53.152;5.846;2023-12-22T01:12:04;17.73;;;3.95;;
52786;SDS011;38661;53.152;5.846;2023-12-22T01:14:32;19.35;;;4.50;;
52786;SDS011;38661;53.152;5.846;2023-12-22T01:16:57;14.18;;;3.53;;
52786;SDS011;38661;53.152;5.846;2023-12-22T01:19:26;15.75;;;3.53;;
52786;SDS011;38661;53.152;5.846;2023-12-22T01:21:52;12.10;;;3.75;;
52786;SDS011;38661;53.152;5.846;2023-12-22T01:24:18;17.25;;;4.30;;
52786;SDS011;38661;53.152;5.846;2023-12-22T01:26:44;17.83;;;5.18;;
52786;SDS011;38661;53.152;5.846;2023-12-22T01:29:09;29.27;;;4.68;;
52786;SDS011;38661;53.152;5.846;2023-12-22T01:31:35;29.80;;;5.57;;
52786;SDS011;38661;53.152;5.846;2023-12-22T01:34:01;24.67;;;4.78;;
52786;SDS011;38661;53.152;5.846;2023-12-22T01:36:26;19.33;;;4.63;;
52786;SDS011;38661;53.152;5.846;2023-12-22T01:38:52;22.02;;;4.53;;
52786;SDS011;38661;53.152;5.846;2023-12-22T01:41:18;19.67;;;4.18;;
52786;SDS011;38661;53.152;5.846;2023-12-22T01:43:43;26.20;;;5.65;;
52786;SDS011;38661;53.152;5.846;2023-12-22T01:46:09;14.65;;;4.20;;
52786;SDS011;38661;53.152;5.846;2023-12-22T01:48:37;20.05;;;5.18;;
52786;SDS011;38661;53.152;5.846;2023-12-22T01:51:04;19.80;;;3.28;;
52786;SDS011;38661;53.152;5.846;2023-12-22T01:53:31;21.67;;;4.07;;
52786;SDS011;38661;53.152;5.846;2023-12-22T01:55:57;17.42;;;3.45;;
52786;SDS011;38661;53.152;5.846;2023-12-22T01:58:25;9.43;;;3.22;;
52786;SDS011;38661;53.152;5.846;2023-12-22T02:00:52;13.15;;;2.97;;
52786;SDS011;38661;53.152;5.846;2023-12-22T02:03:19;9.65;;;2.78;;
52786;SDS011;38661;53.152;5.846;2023-12-22T02:05:45;9.20;;;2.97;;
52786;SDS011;38661;53.152;5.846;2023-12-22T02:08:11;15.25;;;2.45;;
52786;SDS011;38661;53.152;5.846;2023-12-22T02:10:37;9.85;;;1.92;;
52786;SDS011;38661;53.152;5.846;2023-12-22T02:13:04;11.85;;;3.03;;
52786;SDS011;38661;53.152;5.846;2023-12-22T02:15:31;12.35;;;2.03;;
52786;SDS011;38661;53.152;5.846;2023-12-22T02:20:46;10.18;;;3.05;;
52786;SDS011;38661;53.152;5.846;2023-12-22T02:23:12;11.07;;;2.45;;
52786;SDS011;38661;53.152;5.846;2023-12-22T02:25:38;15.15;;;2.65;;
52786;SDS011;38661;53.152;5.846;2023-12-22T02:28:05;12.70;;;3.25;;
52786;SDS011;38661;53.152;5.846;2023-12-22T02:30:37;8.85;;;2.20;;
52786;SDS011;38661;53.152;5.846;2023-12-22T02:33:14;5.30;;;1.77;;
52786;SDS011;38661;53.152;5.846;2023-12-22T02:35:41;9.65;;;2.38;;
52786;SDS011;38661;53.152;5.846;2023-12-22T02:38:09;6.18;;;1.60;;
52786;SDS011;38661;53.152;5.846;2023-12-22T02:40:37;5.20;;;1.50;;
52786;SDS011;38661;53.152;5.846;2023-12-22T02:43:04;7.20;;;1.20;;
52786;SDS011;38661;53.152;5.846;2023-12-22T02:45:32;5.03;;;1.33;;
52786;SDS011;38661;53.152;5.846;2023-12-22T02:47:57;11.05;;;2.13;;
52786;SDS011;38661;53.152;5.846;2023-12-22T02:50:23;8.60;;;1.30;;
52786;SDS011;38661;53.152;5.846;2023-12-22T02:52:49;11.20;;;1.83;;
52786;SDS011;38661;53.152;5.846;2023-12-22T02:55:15;13.63;;;2.92;;
52786;SDS011;38661;53.152;5.846;2023-12-22T02:57:41;11.25;;;3.25;;
52786;SDS011;38661;53.152;5.846;2023-12-22T03:00:07;10.73;;;3.25;;
52786;SDS011;38661;53.152;5.846;2023-12-22T03:02:33;17.25;;;3.47;;
52786;SDS011;38661;53.152;5.846;2023-12-22T03:05:01;19.55;;;3.70;;
52786;SDS011;38661;53.152;5.846;2023-12-22T03:07:26;15.43;;;3.05;;
52786;SDS011;38661;53.152;5.846;2023-12-22T03:09:52;11.52;;;2.78;;
52786;SDS011;38661;53.152;5.846;2023-12-22T03:12:18;16.10;;;2.67;;
52786;SDS011;38661;53.152;5.846;2023-12-22T03:14:43;17.25;;;3.55;;
52786;SDS011;38661;53.152;5.846;2023-12-22T03:17:09;19.25;;;4.00;;
52786;SDS011;38661;53.152;5.846;2023-12-22T03:19:36;20.52;;;3.83;;
52786;SDS011;38661;53.152;5.846;2023-12-22T03:22:02;15.65;;;3.40;;
52786;SDS011;38661;53.152;5.846;2023-12-22T03:24:28;22.98;;;3.97;;
52786;SDS011;38661;53.152;5.846;2023-12-22T03:26:53;18.15;;;4.35;;
52786;SDS011;38661;53.152;5.846;2023-12-22T03:29:20;17.30;;;3.38;;
52786;SDS011;38661;53.152;5.846;2023-12-22T03:31:46;16.65;;;3.45;;
52786;SDS011;38661;53.152;5.846;2023-12-22T03:34:12;18.98;;;3.72;;
52786;SDS011;38661;53.152;5.846;2023-12-22T03:36:38;14.70;;;3.08;;
52786;SDS011;38661;53.152;5.846;2023-12-22T03:39:04;11.90;;;2.30;;
52786;SDS011;38661;53.152;5.846;2023-12-22T03:41:30;12.85;;;2.63;;
52786;SDS011;38661;53.152;5.846;2023-12-22T03:43:56;17.13;;;4.00;;
52786;SDS011;38661;53.152;5.846;2023-12-22T03:46:22;17.73;;;3.08;;
52786;SDS011;38661;53.152;5.846;2023-12-22T03:48:48;12.80;;;2.85;;
52786;SDS011;38661;53.152;5.846;2023-12-22T03:51:18;14.30;;;3.60;;
52786;SDS011;38661;53.152;5.846;2023-12-22T03:53:43;12.60;;;2.38;;
52786;SDS011;38661;53.152;5.846;2023-12-22T03:56:09;17.73;;;3.47;;
52786;SDS011;38661;53.152;5.846;2023-12-22T03:58:35;17.30;;;4.40;;
52786;SDS011;38661;53.152;5.846;2023-12-22T04:01:01;11.93;;;2.80;;
52786;SDS011;38661;53.152;5.846;2023-12-22T04:03:27;15.70;;;3.25;;
52786;SDS011;38661;53.152;5.846;2023-12-22T04:05:53;13.88;;;2.85;;
52786;SDS011;38661;53.152;5.846;2023-12-22T04:08:19;21.15;;;4.80;;
52786;SDS011;38661;53.152;5.846;2023-12-22T04:10:47;19.77;;;4.07;;
52786;SDS011;38661;53.152;5.846;2023-12-22T04:13:13;15.80;;;3.78;;
52786;SDS011;38661;53.152;5.846;2023-12-22T04:15:39;13.43;;;3.72;;
52786;SDS011;38661;53.152;5.846;2023-12-22T04:18:05;15.23;;;3.20;;
52786;SDS011;38661;53.152;5.846;2023-12-22T04:20:31;19.15;;;4.47;;
52786;SDS011;38661;53.152;5.846;2023-12-22T04:23:00;16.60;;;3.75;;
52786;SDS011;38661;53.152;5.846;2023-12-22T04:25:25;14.13;;;3.55;;
52786;SDS011;38661;53.152;5.846;2023-12-22T04:27:51;24.75;;;4.65;;
52786;SDS011;38661;53.152;5.846;2023-12-22T04:30:17;16.33;;;3.25;;
52786;SDS011;38661;53.152;5.846;2023-12-22T04:32:43;19.70;;;4.10;;
52786;SDS011;38661;53.152;5.846;2023-12-22T04:35:09;14.43;;;3.72;;
52786;SDS011;38661;53.152;5.846;2023-12-22T04:37:34;32.80;;;3.13;;
52786;SDS011;38661;53.152;5.846;2023-12-22T04:40:00;16.80;;;3.15;;
52786;SDS011;38661;53.152;5.846;2023-12-22T04:42:27;13.48;;;3.78;;
52786;SDS011;38661;53.152;5.846;2023-12-22T04:44:53;16.08;;;4.75;;
52786;SDS011;38661;53.152;5.846;2023-12-22T04:47:19;15.27;;;3.17;;
52786;SDS011;38661;53.152;5.846;2023-12-22T04:49:44;12.63;;;3.20;;
52786;SDS011;38661;53.152;5.846;2023-12-22T04:52:10;12.77;;;3.50;;
52786;SDS011;38661;53.152;5.846;2023-12-22T04:54:36;15.68;;;4.22;;
52786;SDS011;38661;53.152;5.846;2023-12-22T04:57:02;14.13;;;3.58;;
52786;SDS011;38661;53.152;5.846;2023-12-22T04:59:28;11.07;;;2.83;;
52786;SDS011;38661;53.152;5.846;2023-12-22T05:01:54;16.63;;;3.65;;
52786;SDS011;38661;53.152;5.846;2023-12-22T05:04:20;17.17;;;4.00;;
52786;SDS011;38661;53.152;5.846;2023-12-22T05:06:46;18.25;;;3.72;;
52786;SDS011;38661;53.152;5.846;2023-12-22T05:09:12;7.10;;;2.60;;
52786;SDS011;38661;53.152;5.846;2023-12-22T05:11:38;13.38;;;3.35;;
52786;SDS011;38661;53.152;5.846;2023-12-22T05:14:03;9.93;;;2.40;;
52786;SDS011;38661;53.152;5.846;2023-12-22T05:16:29;15.38;;;3.47;;
52786;SDS011;38661;53.152;5.846;2023-12-22T05:18:59;15.90;;;4.05;;
52786;SDS011;38661;53.152;5.846;2023-12-22T05:21:25;13.07;;;3.45;;
52786;SDS011;38661;53.152;5.846;2023-12-22T05:23:52;15.55;;;3.70;;
52786;SDS011;38661;53.152;5.846;2023-12-22T05:26:18;30.02;;;5.22;;
52786;SDS011;38661;53.152;5.846;2023-12-22T05:28:45;23.08;;;4.10;;
52786;SDS011;38661;53.152;5.846;2023-12-22T05:31:10;20.38;;;4.43;;
52786;SDS011;38661;53.152;5.846;2023-12-22T05:33:36;15.27;;;3.08;;
52786;SDS011;38661;53.152;5.846;2023-12-22T05:36:02;12.75;;;2.55;;
52786;SDS011;38661;53.152;5.846;2023-12-22T05:38:28;20.60;;;4.00;;
52786;SDS011;38661;53.152;5.846;2023-12-22T05:40:54;14.57;;;3.25;;
52786;SDS011;38661;53.152;5.846;2023-12-22T05:43:20;14.18;;;3.75;;
52786;SDS011;38661;53.152;5.846;2023-12-22T05:45:45;13.82;;;3.60;;
52786;SDS011;38661;53.152;5.846;2023-12-22T05:48:11;20.65;;;3.95;;
52786;SDS011;38661;53.152;5.846;2023-12-22T05:50:37;12.50;;;2.63;;
52786;SDS011;38661;53.152;5.846;2023-12-22T05:53:02;22.63;;;5.65;;
52786;SDS011;38661;53.152;5.846;2023-12-22T05:55:28;16.45;;;4.03;;
52786;SDS011;38661;53.152;5.846;2023-12-22T05:57:54;22.75;;;4.85;;
52786;SDS011;38661;53.152;5.846;2023-12-22T06:00:20;16.30;;;2.83;;
52786;SDS011;38661;53.152;5.846;2023-12-22T06:02:47;13.32;;;3.83;;
52786;SDS011;38661;53.152;5.846;2023-12-22T06:05:12;13.00;;;3.85;;
52786;SDS011;38661;53.152;5.846;2023-12-22T06:07:38;17.63;;;3.08;;
52786;SDS011;38661;53.152;5.846;2023-12-22T06:10:05;16.10;;;3.20;;
52786;SDS011;38661;53.152;5.846;2023-12-22T06:12:32;11.13;;;2.70;;
52786;SDS011;38661;53.152;5.846;2023-12-22T06:14:58;9.75;;;2.30;;
52786;SDS011;38661;53.152;5.846;2023-12-22T06:17:23;9.75;;;3.25;;
52786;SDS011;38661;53.152;5.846;2023-12-22T06:19:49;15.48;;;3.55;;
52786;SDS011;38661;53.152;5.846;2023-12-22T06:22:15;16.58;;;3.80;;
52786;SDS011;38661;53.152;5.846;2023-12-22T06:24:40;14.63;;;3.33;;
52786;SDS011;38661;53.152;5.846;2023-12-22T06:27:06;11.20;;;3.42;;
52786;SDS011;38661;53.152;5.846;2023-12-22T06:29:32;13.88;;;3.92;;
52786;SDS011;38661;53.152;5.846;2023-12-22T06:31:58;13.30;;;2.90;;
52786;SDS011;38661;53.152;5.846;2023-12-22T06:34:24;14.23;;;2.58;;
52786;SDS011;38661;53.152;5.846;2023-12-22T06:36:50;14.93;;;2.70;;
52786;SDS011;38661;53.152;5.846;2023-12-22T06:39:16;17.08;;;4.03;;
52786;SDS011;38661;53.152;5.846;2023-12-22T06:41:42;17.92;;;3.17;;
52786;SDS011;38661;53.152;5.846;2023-12-22T06:44:08;12.57;;;3.60;;
52786;SDS011;38661;53.152;5.846;2023-12-22T06:46:35;14.35;;;3.63;;
52786;SDS011;38661;53.152;5.846;2023-12-22T06:49:01;14.02;;;3.15;;
52786;SDS011;38661;53.152;5.846;2023-12-22T06:51:27;16.35;;;2.90;;
52786;SDS011;38661;53.152;5.846;2023-12-22T06:54:00;9.45;;;2.78;;
52786;SDS011;38661;53.152;5.846;2023-12-22T06:56:29;16.15;;;3.30;;
52786;SDS011;38661;53.152;5.846;2023-12-22T06:58:57;22.73;;;4.22;;
52786;SDS011;38661;53.152;5.846;2023-12-22T07:01:27;10.77;;;2.15;;
52786;SDS011;38661;53.152;5.846;2023-12-22T07:03:56;13.93;;;2.88;;
52786;SDS011;38661;53.152;5.846;2023-12-22T07:06:25;12.93;;;3.13;;
52786;SDS011;38661;53.152;5.846;2023-12-22T07:11:37;16.58;;;3.55;;
52786;SDS011;38661;53.152;5.846;2023-12-22T07:14:03;19.20;;;4.07;;
52786;SDS011;38661;53.152;5.846;2023-12-22T07:16:29;10.70;;;2.85;;
52786;SDS011;38661;53.152;5.846;2023-12-22T07:18:54;17.65;;;3.15;;
52786;SDS011;38661;53.152;5.846;2023-12-22T07:21:20;17.60;;;3.55;;
52786;SDS011;38661;53.152;5.846;2023-12-22T07:23:46;18.92;;;3.67;;
52786;SDS011;38661;53.152;5.846;2023-12-22T07:26:12;16.02;;;4.10;;
52786;SDS011;38661;53.152;5.846;2023-12-22T07:28:37;21.92;;;5.18;;
52786;SDS011;38661;53.152;5.846;2023-12-22T07:31:03;19.83;;;3.55;;
52786;SDS011;38661;53.152;5.846;2023-12-22T07:33:30;18.63;;;3.08;;
52786;SDS011;38661;53.152;5.846;2023-12-22T07:35:56;17.55;;;4.57;;
52786;SDS011;38661;53.152;5.846;2023-12-22T07:38:22;21.25;;;4.00;;
52786;SDS011;38661;53.152;5.846;2023-12-22T07:40:47;12.70;;;2.70;;
52786;SDS011;38661;53.152;5.846;2023-12-22T07:43:13;12.20;;;2.35;;
52786;SDS011;38661;53.152;5.846;2023-12-22T07:45:39;14.73;;;3.42;;
52786;SDS011;38661;53.152;5.846;2023-12-22T07:48:05;10.30;;;2.20;;
52786;SDS011;38661;53.152;5.846;2023-12-22T07:50:31;5.70;;;1.15;;
52786;SDS011;38661;53.152;5.846;2023-12-22T07:52:57;7.45;;;2.45;;
52786;SDS011;38661;53.152;5.846;2023-12-22T07:55:23;8.07;;;1.90;;
52786;SDS011;38661;53.152;5.846;2023-12-22T07:57:49;5.30;;;2.00;;
52786;SDS011;38661;53.152;5.846;2023-12-22T08:00:16;7.80;;;1.90;;
52786;SDS011;38661;53.152;5.846;2023-12-22T08:02:42;10.18;;;1.38;;
52786;SDS011;38661;53.152;5.846;2023-12-22T08:05:08;4.93;;;0.93;;
52786;SDS011;38661;53.152;5.846;2023-12-22T08:07:34;2.60;;;0.60;;
52786;SDS011;38661;53.152;5.846;2023-12-22T08:10:01;4.95;;;1.15;;
52786;SDS011;38661;53.152;5.846;2023-12-22T08:12:27;1.83;;;0.65;;
52786;SDS011;38661;53.152;5.846;2023-12-22T08:14:53;3.67;;;1.02;;
52786;SDS011;38661;53.152;5.846;2023-12-22T08:17:19;2.97;;;1.17;;
52786;SDS011;38661;53.152;5.846;2023-12-22T08:19:45;5.07;;;1.13;;
52786;SDS011;38661;53.152;5.846;2023-12-22T08:22:11;4.57;;;0.98;;
52786;SDS011;38661;53.152;5.846;2023-12-22T08:24:40;5.53;;;1.00;;
52786;SDS011;38661;53.152;5.846;2023-12-22T08:27:06;5.18;;;1.73;;
52786;SDS011;38661;53.152;5.846;2023-12-22T08:29:33;2.92;;;1.33;;
52786;SDS011;38661;53.152;5.846;2023-12-22T08:31:58;5.10;;;1.13;;
52786;SDS011;38661;53.152;5.846;2023-12-22T08:34:25;4.13;;;1.30;;
52786;SDS011;38661;53.152;5.846;2023-12-22T08:36:51;6.30;;;1.10;;
52786;SDS011;38661;53.152;5.846;2023-12-22T08:39:17;6.50;;;1.40;;
52786;SDS011;38661;53.152;5.846;2023-12-22T08:41:42;7.15;;;1.88;;
52786;SDS011;38661;53.152;5.846;2023-12-22T08:44:08;5.15;;;1.75;;
52786;SDS011;38661;53.152;5.846;2023-12-22T08:46:35;12.40;;;2.67;;
52786;SDS011;38661;53.152;5.846;2023-12-22T08:49:00;11.52;;;2.92;;
52786;SDS011;38661;53.152;5.846;2023-12-22T08:51:27;15.70;;;3.67;;
52786;SDS011;38661;53.152;5.846;2023-12-22T08:53:54;11.18;;;2.53;;
52786;SDS011;38661;53.152;5.846;2023-12-22T08:56:23;10.75;;;1.95;;
52786;SDS011;38661;53.152;5.846;2023-12-22T08:58:51;12.60;;;2.35;;
52786;SDS011;38661;53.152;5.846;2023-12-22T09:01:19;12.05;;;2.53;;
52786;SDS011;38661;53.152;5.846;2023-12-22T09:03:45;12.50;;;2.70;;
52786;SDS011;38661;53.152;5.846;2023-12-22T09:06:15;20.27;;;3.97;;
52786;SDS011;38661;53.152;5.846;2023-12-22T09:08:42;13.23;;;2.17;;
52786;SDS011;38661;53.152;5.846;2023-12-22T09:11:08;19.02;;;3.83;;
52786;SDS011;38661;53.152;5.846;2023-12-22T09:13:35;13.95;;;2.40;;
52786;SDS011;38661;53.152;5.846;2023-12-22T09:16:01;10.32;;;2.40;;
52786;SDS011;38661;53.152;5.846;2023-12-22T09:18:30;14.30;;;2.92;;
52786;SDS011;38661;53.152;5.846;2023-12-22T09:20:56;11.45;;;3.33;;
52786;SDS011;38661;53.152;5.846;2023-12-22T09:23:22;9.95;;;2.22;;
52786;SDS011;38661;53.152;5.846;2023-12-22T09:25:48;10.60;;;3.55;;
52786;SDS011;38661;53.152;5.846;2023-12-22T09:28:14;11.57;;;3.83;;
52786;SDS011;38661;53.152;5.846;2023-12-22T09:30:40;14.35;;;2.63;;
52786;SDS011;38661;53.152;5.846;2023-12-22T09:33:07;12.25;;;2.72;;
52786;SDS011;38661;53.152;5.846;2023-12-22T09:35:37;11.35;;;2.55;;
52786;SDS011;38661;53.152;5.846;2023-12-22T09:38:07;12.38;;;2.63;;
52786;SDS011;38661;53.152;5.846;2023-12-22T09:40:34;13.55;;;2.85;;
52786;SDS011;38661;53.152;5.846;2023-12-22T09:43:01;12.05;;;2.65;;
52786;SDS011;38661;53.152;5.846;2023-12-22T09:45:27;14.40;;;2.42;;
52786;SDS011;38661;53.152;5.846;2023-12-22T09:47:56;7.90;;;2.53;;
52786;SDS011;38661;53.152;5.846;2023-12-22T09:50:23;13.88;;;3.15;;
52786;SDS011;38661;53.152;5.846;2023-12-22T09:52:51;10.05;;;3.13;;
52786;SDS011;38661;53.152;5.846;2023-12-22T09:55:17;9.85;;;2.45;;
52786;SDS011;38661;53.152;5.846;2023-12-22T09:57:43;17.15;;;2.92;;
52786;SDS011;38661;53.152;5.846;2023-12-22T10:00:10;13.45;;;3.08;;
52786;SDS011;38661;53.152;5.846;2023-12-22T10:02:37;11.73;;;3.38;;
52786;SDS011;38661;53.152;5.846;2023-12-22T10:05:04;16.10;;;2.70;;
52786;SDS011;38661;53.152;5.846;2023-12-22T10:07:31;18.77;;;3.55;;
52786;SDS011;38661;53.152;5.846;2023-12-22T10:09:58;23.77;;;4.03;;
52786;SDS011;38661;53.152;5.846;2023-12-22T10:12:26;14.18;;;3.10;;
52786;SDS011;38661;53.152;5.846;2023-12-22T10:14:55;15.57;;;3.13;;
52786;SDS011;38661;53.152;5.846;2023-12-22T10:17:22;18.15;;;3.53;;
52786;SDS011;38661;53.152;5.846;2023-12-22T10:19:48;14.10;;;3.40;;
52786;SDS011;38661;53.152;5.846;2023-12-22T10:22:14;19.23;;;3.75;;
52786;SDS011;38661;53.152;5.846;2023-12-22T10:24:43;14.57;;;2.47;;
52786;SDS011;38661;53.152;5.846;2023-12-22T10:27:15;14.00;;;2.70;;
52786;SDS011;38661;53.152;5.846;2023-12-22T10:29:55;14.25;;;2.67;;
52786;SDS011;38661;53.152;5.846;2023-12-22T10:32:21;12.15;;;2.42;;
52786;SDS011;38661;53.152;5.846;2023-12-22T10:34:48;11.05;;;2.92;;
52786;SDS011;38661;53.152;5.846;2023-12-22T10:37:16;6.68;;;1.90;;
52786;SDS011;38661;53.152;5.846;2023-12-22T10:39:42;11.75;;;1.92;;
52786;SDS011;38661;53.152;5.846;2023-12-22T10:42:07;13.50;;;2.88;;
52786;SDS011;38661;53.152;5.846;2023-12-22T10:44:35;9.80;;;2.60;;
52786;SDS011;38661;53.152;5.846;2023-12-22T10:47:04;8.27;;;2.10;;
52786;SDS011;38661;53.152;5.846;2023-12-22T10:49:31;8.73;;;2.70;;
52786;SDS011;38661;53.152;5.846;2023-12-22T10:51:57;11.10;;;2.15;;
52786;SDS011;38661;53.152;5.846;2023-12-22T10:54:23;6.00;;;1.33;;
52786;SDS011;38661;53.152;5.846;2023-12-22T10:56:48;18.92;;;3.72;;
52786;SDS011;38661;53.152;5.846;2023-12-22T10:59:22;19.13;;;3.20;;
52786;SDS011;38661;53.152;5.846;2023-12-22T11:01:48;13.65;;;3.08;;
52786;SDS011;38661;53.152;5.846;2023-12-22T11:04:17;20.92;;;3.67;;
52786;SDS011;38661;53.152;5.846;2023-12-22T11:06:45;12.38;;;3.05;;
52786;SDS011;38661;53.152;5.846;2023-12-22T11:09:14;12.43;;;2.75;;
52786;SDS011;38661;53.152;5.846;2023-12-22T11:11:42;11.30;;;2.45;;
52786;SDS011;38661;53.152;5.846;2023-12-22T11:14:09;13.77;;;3.17;;
52786;SDS011;38661;53.152;5.846;2023-12-22T11:16:36;16.25;;;2.83;;
52786;SDS011;38661;53.152;5.846;2023-12-22T11:19:02;14.93;;;3.65;;
52786;SDS011;38661;53.152;5.846;2023-12-22T11:21:29;13.68;;;3.03;;
52786;SDS011;38661;53.152;5.846;2023-12-22T11:23:55;12.95;;;2.05;;
52786;SDS011;38661;53.152;5.846;2023-12-22T11:26:25;13.10;;;2.78;;
52786;SDS011;38661;53.152;5.846;2023-12-22T11:28:51;13.10;;;2.47;;
52786;SDS011;38661;53.152;5.846;2023-12-22T11:31:17;7.90;;;2.20;;
52786;SDS011;38661;53.152;5.846;2023-12-22T11:33:46;16.67;;;3.40;;
52786;SDS011;38661;53.152;5.846;2023-12-22T11:36:16;14.32;;;2.38;;
52786;SDS011;38661;53.152;5.846;2023-12-22T11:38:44;12.95;;;2.35;;
52786;SDS011;38661;53.152;5.846;2023-12-22T11:41:24;10.80;;;2.30;;
52786;SDS011;38661;53.152;5.846;2023-12-22T11:43:52;12.10;;;2.70;;
52786;SDS011;38661;53.152;5.846;2023-12-22T11:46:19;9.98;;;2.20;;
52786;SDS011;38661;53.152;5.846;2023-12-22T11:48:48;12.82;;;3.33;;
52786;SDS011;38661;53.152;5.846;2023-12-22T11:51:16;11.23;;;2.05;;
52786;SDS011;38661;53.152;5.846;2023-12-22T11:53:42;12.15;;;3.40;;
52786;SDS011;38661;53.152;5.846;2023-12-22T11:56:09;14.55;;;3.08;;
52786;SDS011;38661;53.152;5.846;2023-12-22T11:58:37;16.23;;;2.95;;
52786;SDS011;38661;53.152;5.846;2023-12-22T12:01:16;14.05;;;2.88;;
52786;SDS011;38661;53.152;5.846;2023-12-22T12:08:59;11.50;;;2.17;;
52786;SDS011;38661;53.152;5.846;2023-12-22T12:14:14;11.90;;;2.78;;
52786;SDS011;38661;53.152;5.846;2023-12-22T12:16:40;10.35;;;3.28;;
52786;SDS011;38661;53.152;5.846;2023-12-22T12:19:08;15.23;;;2.95;;
52786;SDS011;38661;53.152;5.846;2023-12-22T12:21:34;13.35;;;2.45;;
52786;SDS011;38661;53.152;5.846;2023-12-22T12:24:03;17.30;;;3.05;;
52786;SDS011;38661;53.152;5.846;2023-12-22T12:26:30;19.10;;;3.85;;
52786;SDS011;38661;53.152;5.846;2023-12-22T12:28:58;13.82;;;2.83;;
52786;SDS011;38661;53.152;5.846;2023-12-22T12:31:45;19.90;;;3.00;;
52786;SDS011;38661;53.152;5.846;2023-12-22T12:34:10;15.13;;;2.90;;
52786;SDS011;38661;53.152;5.846;2023-12-22T12:36:36;13.25;;;2.47;;
52786;SDS011;38661;53.152;5.846;2023-12-22T12:39:07;16.00;;;2.80;;
52786;SDS011;38661;53.152;5.846;2023-12-22T12:41:35;14.25;;;3.63;;
52786;SDS011;38661;53.152;5.846;2023-12-22T12:44:05;15.30;;;2.95;;
52786;SDS011;38661;53.152;5.846;2023-12-22T12:46:35;14.48;;;2.83;;
52786;SDS011;38661;53.152;5.846;2023-12-22T12:49:06;13.88;;;4.40;;
52786;SDS011;38661;53.152;5.846;2023-12-22T12:51:40;16.35;;;2.70;;
52786;SDS011;38661;53.152;5.846;2023-12-22T12:54:10;17.13;;;3.17;;
52786;SDS011;38661;53.152;5.846;2023-12-22T12:56:46;10.55;;;2.55;;
52786;SDS011;38661;53.152;5.846;2023-12-22T12:59:15;12.90;;;2.40;;
52786;SDS011;38661;53.152;5.846;2023-12-22T13:01:44;17.77;;;3.15;;
52786;SDS011;38661;53.152;5.846;2023-12-22T13:04:12;13.55;;;2.60;;
52786;SDS011;38661;53.152;5.846;2023-12-22T13:06:44;18.13;;;3.63;;
52786;SDS011;38661;53.152;5.846;2023-12-22T13:09:11;16.45;;;4.20;;
52786;SDS011;38661;53.152;5.846;2023-12-22T13:11:38;15.43;;;3.00;;
52786;SDS011;38661;53.152;5.846;2023-12-22T13:14:05;12.27;;;2.85;;
52786;SDS011;38661;53.152;5.846;2023-12-22T13:16:33;10.60;;;2.60;;
52786;SDS011;38661;53.152;5.846;2023-12-22T13:18:59;8.32;;;2.45;;
52786;SDS011;38661;53.152;5.846;2023-12-22T13:21:25;6.30;;;1.25;;
52786;SDS011;38661;53.152;5.846;2023-12-22T13:24:09;8.32;;;1.80;;
52786;SDS011;38661;53.152;5.846;2023-12-22T13:26:38;10.52;;;1.65;;
52786;SDS011;38661;53.152;5.846;2023-12-22T13:29:08;11.88;;;2.53;;
52786;SDS011;38661;53.152;5.846;2023-12-22T13:31:38;9.63;;;1.95;;
52786;SDS011;38661;53.152;5.846;2023-12-22T13:34:12;15.05;;;3.78;;
52786;SDS011;38661;53.152;5.846;2023-12-22T13:36:39;4.65;;;1.00;;
52786;SDS011;38661;53.152;5.846;2023-12-22T13:39:07;5.13;;;0.88;;
52786;SDS011;38661;53.152;5.846;2023-12-22T13:41:42;5.65;;;1.00;;
52786;SDS011;38661;53.152;5.846;2023-12-22T13:44:14;2.78;;;0.85;;
52786;SDS011;38661;53.152;5.846;2023-12-22T13:46:39;4.70;;;1.10;;
52786;SDS011;38661;53.152;5.846;2023-12-22T13:49:10;9.32;;;1.08;;
52786;SDS011;38661;53.152;5.846;2023-12-22T13:51:43;6.82;;;0.88;;
52786;SDS011;38661;53.152;5.846;2023-12-22T13:54:09;3.78;;;1.23;;
52786;SDS011;38661;53.152;5.846;2023-12-22T13:56:38;3.92;;;0.80;;
52786;SDS011;38661;53.152;5.846;2023-12-22T13:59:09;5.28;;;1.15;;
52786;SDS011;38661;53.152;5.846;2023-12-22T14:01:36;5.25;;;0.98;;
52786;SDS011;38661;53.152;5.846;2023-12-22T14:04:02;4.22;;;0.75;;
52786;SDS011;38661;53.152;5.846;2023-12-22T14:06:28;4.32;;;1.08;;
52786;SDS011;38661;53.152;5.846;2023-12-22T14:08:54;4.05;;;1.55;;
52786;SDS011;38661;53.152;5.846;2023-12-22T14:11:21;7.20;;;1.00;;
52786;SDS011;38661;53.152;5.846;2023-12-22T14:13:47;8.52;;;1.40;;
52786;SDS011;38661;53.152;5.846;2023-12-22T14:16:12;6.28;;;1.80;;
52786;SDS011;38661;53.152;5.846;2023-12-22T14:18:40;9.90;;;1.15;;
52786;SDS011;38661;53.152;5.846;2023-12-22T14:21:06;4.15;;;1.33;;
52786;SDS011;38661;53.152;5.846;2023-12-22T14:23:32;9.52;;;0.90;;
52786;SDS011;38661;53.152;5.846;2023-12-22T14:25:57;10.32;;;1.30;;
52786;SDS011;38661;53.152;5.846;2023-12-22T14:28:23;10.80;;;1.75;;
52786;SDS011;38661;53.152;5.846;2023-12-22T14:30:49;4.00;;;0.85;;
52786;SDS011;38661;53.152;5.846;2023-12-22T14:33:15;6.93;;;1.30;;
52786;SDS011;38661;53.152;5.846;2023-12-22T14:35:40;7.25;;;1.27;;
52786;SDS011;38661;53.152;5.846;2023-12-22T14:38:06;8.40;;;1.50;;
52786;SDS011;38661;53.152;5.846;2023-12-22T14:40:32;13.38;;;2.05;;
52786;SDS011;38661;53.152;5.846;2023-12-22T14:42:58;6.20;;;1.52;;
52786;SDS011;38661;53.152;5.846;2023-12-22T14:45:24;9.48;;;2.10;;
52786;SDS011;38661;53.152;5.846;2023-12-22T14:47:50;10.15;;;1.63;;
52786;SDS011;38661;53.152;5.846;2023-12-22T14:50:18;12.15;;;2.30;;